LFLY/LYN METAR and TAF weather

Enter ICAO airport designator
Station Type Date Time Source
LFLY METAR 2021/07/26 16:00 UTC NOAA

LFLY 261600Z AUTO 34010KT 320V030 CAVOK 27/13 Q1013 TEMPO FEW045TCU


Station Type Date Time Source
LFLY Decoded METAR 2021/07/26 16:00 UTC NOAA

Lyon / Bron, France (LFLY) 45-43N 004-57E 201M
Jul 26, 2021 - 12:00 PM EDT / 2021.07.26 1600 UTC
Wind: from the NNW (340 degrees) at 12 MPH (10 KT) (direction variable):0
Visibility: greater than 7 mile(s):0
Weather: Towering cumulus clouds observed
Temperature: 80 F (27 C)
Dew Point: 55 F (13 C)
Relative Humidity: 41%
Pressure (altimeter): 29.91 in. Hg (1013 hPa)
ob: LFLY 261600Z AUTO 34010KT 320V030 CAVOK 27/13 Q1013 TEMPO FEW045TCU
cycle: 16

Station Type Date Time Source
LFLY TAF 2021/07/26 12:21 UTC NOAA

TAF LFLY 261100Z 2612/2712 36006KT 9999 SCT045 PROB30
TEMPO 2615/2617 -SHRA FEW045TCU
BECMG 2618/2620 CAVOK
BECMG 2620/2622 VRB03KT

Example: see airport list